createdAt,value
2019-03-19T00:00:56.232Z,99.99
2019-03-19T00:01:56.131Z,99.99
2019-03-19T00:02:56.143Z,99.99
2019-03-19T00:03:56.135Z,99.99
2019-03-19T00:04:56.079Z,99.99
2019-03-19T00:05:56.011Z,99.99
2019-03-19T00:06:56.102Z,99.99
2019-03-19T00:07:55.954Z,99.99
2019-03-19T00:08:55.979Z,99.99
2019-03-19T00:09:55.874Z,99.99
2019-03-19T00:10:55.887Z,99.99
2019-03-19T00:11:57.817Z,99.99
2019-03-19T00:12:55.971Z,99.99
2019-03-19T00:13:55.768Z,99.99
2019-03-19T00:14:55.816Z,99.99
2019-03-19T00:15:55.701Z,99.99
2019-03-19T00:16:55.722Z,99.99
2019-03-19T00:17:55.643Z,99.99
2019-03-19T00:18:55.636Z,99.99
2019-03-19T00:19:55.581Z,99.99
2019-03-19T00:20:55.646Z,99.99
2019-03-19T00:21:55.525Z,99.99
2019-03-19T00:22:56.591Z,99.99
2019-03-19T00:23:55.459Z,99.99
2019-03-19T00:24:55.474Z,99.99
2019-03-19T00:25:55.407Z,99.99
2019-03-19T00:26:55.390Z,99.99
2019-03-19T00:27:55.476Z,99.99
2019-03-19T00:28:55.397Z,99.99
2019-03-19T00:29:55.283Z,99.99
2019-03-19T00:30:55.302Z,99.99
2019-03-19T00:31:55.227Z,99.99
2019-03-19T00:32:55.212Z,99.99
2019-03-19T00:33:55.159Z,99.99
2019-03-19T00:34:56.148Z,99.99
2019-03-19T00:35:55.093Z,99.99
2019-03-19T00:36:55.132Z,99.99
2019-03-19T00:37:55.043Z,99.99
2019-03-19T00:38:55.050Z,99.99
2019-03-19T00:39:55.050Z,99.99
2019-03-19T00:40:55.057Z,99.99
2019-03-19T00:41:54.923Z,99.99
2019-03-19T00:42:54.983Z,99.99
2019-03-19T00:43:54.873Z,99.99
2019-03-19T00:44:54.892Z,99.99
2019-03-19T00:45:54.828Z,99.99
2019-03-19T00:46:54.909Z,99.99
2019-03-19T00:47:54.753Z,99.99
2019-03-19T00:48:54.891Z,99.99
2019-03-19T00:49:54.698Z,99.99
2019-03-19T00:50:54.732Z,99.99
2019-03-19T00:51:54.640Z,99.99
2019-03-19T00:52:54.580Z,99.99
2019-03-19T00:53:54.645Z,99.99
2019-03-19T00:54:54.527Z,99.99
2019-03-19T00:55:54.587Z,99.99
2019-03-19T00:56:54.480Z,99.99
2019-03-19T00:57:54.513Z,99.99
2019-03-19T00:58:54.406Z,99.99
2019-03-19T00:59:54.472Z,99.99
2019-03-19T01:00:54.342Z,99.99
2019-03-19T01:01:54.393Z,99.99
2019-03-19T01:02:54.308Z,99.99
2019-03-19T01:03:54.301Z,99.99
2019-03-19T01:04:54.259Z,99.99
2019-03-19T01:05:54.298Z,99.99
2019-03-19T01:06:54.174Z,99.99
2019-03-19T01:07:54.235Z,99.99
2019-03-19T01:08:54.108Z,99.99
2019-03-19T01:09:54.132Z,99.99
2019-03-19T01:10:54.063Z,99.99
2019-03-19T01:11:55.059Z,99.99
2019-03-19T01:12:53.982Z,99.99
2019-03-19T01:13:54.084Z,99.99
2019-03-19T01:14:53.928Z,99.99
2019-03-19T01:15:53.960Z,99.99
2019-03-19T01:16:53.938Z,99.99
2019-03-19T01:17:53.925Z,99.99
2019-03-19T01:18:53.812Z,99.99
2019-03-19T01:19:53.781Z,99.99
2019-03-19T01:20:53.745Z,99.99
2019-03-19T01:22:15.827Z,99.99
2019-03-19T01:22:53.721Z,99.99
2019-03-19T01:24:09.377Z,99.99
2019-03-19T01:24:53.649Z,99.99
2019-03-19T01:25:55.791Z,99.99
2019-03-19T01:26:53.566Z,99.99
2019-03-19T01:27:53.639Z,99.99
2019-03-19T01:28:53.494Z,99.99
2019-03-19T01:29:53.576Z,99.99
2019-03-19T01:30:53.457Z,99.99
2019-03-19T01:31:53.474Z,99.99
2019-03-19T01:32:53.406Z,99.99
2019-03-19T01:33:53.376Z,99.99
2019-03-19T01:34:53.330Z,99.99
2019-03-19T01:35:53.400Z,99.99
2019-03-19T01:36:53.275Z,99.99
2019-03-19T01:37:53.287Z,99.99
2019-03-19T01:38:53.212Z,99.99
2019-03-19T01:39:53.198Z,99.99
2019-03-19T01:40:53.151Z,99.99
2019-03-19T01:41:53.215Z,99.99
2019-03-19T01:42:53.110Z,99.99
2019-03-19T01:43:53.234Z,99.99
2019-03-19T01:44:53.017Z,99.99
2019-03-19T01:45:53.037Z,99.99
2019-03-19T01:46:53.014Z,99.99
2019-03-19T01:47:54.022Z,99.99
2019-03-19T01:48:52.954Z,99.99
2019-03-19T01:49:52.981Z,99.99
2019-03-19T01:50:52.820Z,99.99
2019-03-19T01:51:52.964Z,99.99
2019-03-19T01:52:52.816Z,99.99
2019-03-19T01:53:52.818Z,99.99
2019-03-19T01:54:52.741Z,99.99
2019-03-19T01:55:52.819Z,99.99
2019-03-19T01:56:52.660Z,99.99
2019-03-19T01:57:52.721Z,99.99
2019-03-19T01:58:52.596Z,99.99
2019-03-19T01:59:53.708Z,99.99
2019-03-19T02:00:52.518Z,99.99
2019-03-19T02:01:53.599Z,99.99
2019-03-19T02:02:52.530Z,99.99
2019-03-19T02:03:53.466Z,99.99
2019-03-19T02:04:52.435Z,99.99
2019-03-19T02:05:54.505Z,99.99
2019-03-19T02:06:52.333Z,99.99
2019-03-19T02:07:52.348Z,99.99
2019-03-19T02:08:52.289Z,99.99
2019-03-19T02:09:53.293Z,99.99
2019-03-19T02:10:52.213Z,99.99
2019-03-19T02:11:52.278Z,99.99
2019-03-19T02:12:52.153Z,99.99
2019-03-19T02:13:52.307Z,99.99
2019-03-19T02:14:52.150Z,99.99
2019-03-19T02:15:52.098Z,99.99
2019-03-19T02:16:52.027Z,99.99
2019-03-19T02:17:52.139Z,99.99
2019-03-19T02:18:51.971Z,99.99
2019-03-19T02:19:52.030Z,99.99
2019-03-19T02:20:51.923Z,99.99
2019-03-19T02:21:51.983Z,99.99
2019-03-19T02:22:51.837Z,99.99
2019-03-19T02:23:51.875Z,99.99
2019-03-19T02:24:51.800Z,99.99
2019-03-19T02:25:51.878Z,99.99
2019-03-19T02:26:51.735Z,99.99
2019-03-19T02:27:51.771Z,99.99
2019-03-19T02:28:51.675Z,99.99
2019-03-19T02:29:52.690Z,99.99
2019-03-19T02:30:51.694Z,99.99
2019-03-19T02:31:51.604Z,99.99
2019-03-19T02:32:51.544Z,99.99
2019-03-19T02:33:53.537Z,99.99
2019-03-19T02:34:51.483Z,99.99
2019-03-19T02:35:51.495Z,99.99
2019-03-19T02:36:51.453Z,99.99
2019-03-19T02:37:51.424Z,99.99
2019-03-19T02:38:51.381Z,99.99
2019-03-19T02:39:51.477Z,99.99
2019-03-19T02:40:51.305Z,99.99
2019-03-19T02:41:57.915Z,99.99
2019-03-19T02:42:51.238Z,99.99
2019-03-19T02:43:51.277Z,99.99
2019-03-19T02:44:51.175Z,99.99
2019-03-19T02:45:53.218Z,99.99
2019-03-19T02:46:51.137Z,99.99
2019-03-19T02:47:51.178Z,99.99
2019-03-19T02:48:51.076Z,99.99
2019-03-19T02:49:51.087Z,99.99
2019-03-19T02:50:51.019Z,99.99
2019-03-19T02:51:51.000Z,99.99
2019-03-19T02:52:50.925Z,99.99
2019-03-19T02:53:51.013Z,99.99
2019-03-19T02:54:50.896Z,99.99
2019-03-19T02:55:51.947Z,99.99
2019-03-19T02:56:50.835Z,99.99
2019-03-19T02:57:50.837Z,99.99
2019-03-19T02:58:50.776Z,99.99
2019-03-19T02:59:50.760Z,99.99
2019-03-19T03:00:50.749Z,99.99
2019-03-19T03:01:51.686Z,99.99
2019-03-19T03:02:50.634Z,99.99
2019-03-19T03:03:51.724Z,99.99
2019-03-19T03:04:50.564Z,99.99
2019-03-19T03:05:51.605Z,99.99
2019-03-19T03:06:50.569Z,99.99
2019-03-19T03:07:52.575Z,99.99
2019-03-19T03:08:50.462Z,99.99
2019-03-19T03:09:52.451Z,99.99
2019-03-19T03:10:50.434Z,99.99
2019-03-19T03:11:51.431Z,99.99
2019-03-19T03:12:50.321Z,99.99
2019-03-19T03:13:50.322Z,99.99
2019-03-19T03:14:50.265Z,99.99
2019-03-19T03:15:51.304Z,99.99
2019-03-19T03:16:50.197Z,99.99
2019-03-19T03:17:50.242Z,99.99
2019-03-19T03:18:50.217Z,99.99
2019-03-19T03:19:51.198Z,99.99
2019-03-19T03:20:50.082Z,99.99
2019-03-19T03:21:50.111Z,99.99
2019-03-19T03:22:57.984Z,99.99
2019-03-19T03:23:49.976Z,99.99
2019-03-19T03:24:52.118Z,99.99
2019-03-19T03:25:49.929Z,99.99
2019-03-19T03:26:56.959Z,99.99
2019-03-19T03:27:49.871Z,99.99
2019-03-19T03:28:49.912Z,99.99
2019-03-19T03:29:49.792Z,99.99
2019-03-19T03:30:49.846Z,99.99
2019-03-19T03:31:49.773Z,99.99
2019-03-19T03:32:56.410Z,99.99
2019-03-19T03:33:49.677Z,99.99
2019-03-19T03:35:04.405Z,99.99
2019-03-19T03:35:49.613Z,99.99
2019-03-19T03:36:58.471Z,99.99
2019-03-19T03:37:49.569Z,99.99
2019-03-19T03:39:05.446Z,99.99
2019-03-19T03:39:49.479Z,99.99
2019-03-19T03:41:06.479Z,99.99
2019-03-19T03:41:49.419Z,99.99
2019-03-19T03:42:51.484Z,99.99
2019-03-19T03:43:49.375Z,99.99
2019-03-19T03:45:49.367Z,99.99
2019-03-19T03:46:57.910Z,99.99
2019-03-19T03:47:49.262Z,99.99
2019-03-19T03:48:51.283Z,99.99
2019-03-19T03:49:49.223Z,99.99
2019-03-19T03:50:49.247Z,99.99
2019-03-19T03:51:49.126Z,99.99
2019-03-19T03:53:13.918Z,99.99
2019-03-19T03:53:49.063Z,99.99
2019-03-19T03:54:49.056Z,99.99
2019-03-19T03:55:49.066Z,99.99
2019-03-19T03:57:01.211Z,99.99
2019-03-19T03:57:48.942Z,99.99
2019-03-19T03:59:05.026Z,99.99
2019-03-19T03:59:48.903Z,99.99
2019-03-19T04:00:48.989Z,99.99
2019-03-19T04:01:48.818Z,99.99
2019-03-19T04:03:05.383Z,99.99
2019-03-19T04:03:48.804Z,99.99
2019-03-19T04:04:56.386Z,99.99
2019-03-19T04:05:48.684Z,99.99
2019-03-19T04:06:48.743Z,99.99
2019-03-19T04:07:48.648Z,99.99
2019-03-19T04:08:49.671Z,99.99
2019-03-19T04:09:48.616Z,99.99
2019-03-19T04:10:56.455Z,99.99
2019-03-19T04:11:48.533Z,99.99
2019-03-19T04:13:10.613Z,99.99
2019-03-19T04:13:48.459Z,99.99
2019-03-19T04:14:50.613Z,99.99
2019-03-19T04:15:48.393Z,99.99
2019-03-19T04:17:10.472Z,99.99
2019-03-19T04:17:48.346Z,99.99
2019-03-19T04:19:05.053Z,99.99
2019-03-19T04:19:48.273Z,99.99
2019-03-19T04:20:48.327Z,99.99
2019-03-19T04:21:54.961Z,99.99
2019-03-19T04:22:48.176Z,99.99
2019-03-19T04:24:04.040Z,99.99
2019-03-19T04:24:48.134Z,99.99
2019-03-19T04:25:56.962Z,99.99
2019-03-19T04:26:48.097Z,99.99
2019-03-19T04:27:50.108Z,99.99
2019-03-19T04:28:48.011Z,99.99
2019-03-19T04:29:55.926Z,99.99
2019-03-19T04:30:47.937Z,99.99
2019-03-19T04:31:55.950Z,99.99
2019-03-19T04:32:47.899Z,99.99
2019-03-19T04:33:55.448Z,99.99
2019-03-19T04:34:47.794Z,99.99
2019-03-19T04:35:56.485Z,99.99
2019-03-19T04:36:47.770Z,99.99
2019-03-19T04:37:47.806Z,99.99
2019-03-19T04:38:47.671Z,99.99
2019-03-19T04:39:56.402Z,99.99
2019-03-19T04:40:49.509Z,99.99
2019-03-19T04:42:16.385Z,99.99
2019-03-19T04:42:47.555Z,99.99
2019-03-19T04:43:47.550Z,99.99
2019-03-19T04:45:11.611Z,99.99
2019-03-19T04:45:47.487Z,99.99
2019-03-19T04:46:47.457Z,99.99
2019-03-19T04:48:03.739Z,99.99
2019-03-19T04:48:47.382Z,99.99
2019-03-19T04:49:47.355Z,99.99
2019-03-19T04:50:47.304Z,99.99
2019-03-19T04:51:48.395Z,99.99
2019-03-19T04:52:47.238Z,99.99
2019-03-19T04:53:48.290Z,99.99
2019-03-19T04:54:47.208Z,99.99
2019-03-19T04:55:47.186Z,99.99
2019-03-19T04:56:47.135Z,99.99
2019-03-19T04:57:47.203Z,99.99
2019-03-19T04:58:47.110Z,99.99
2019-03-19T04:59:47.119Z,99.99
2019-03-19T05:00:47.019Z,99.99
2019-03-19T05:01:47.029Z,99.99
2019-03-19T05:02:46.952Z,99.99
2019-03-19T05:03:46.939Z,99.99
2019-03-19T05:04:46.892Z,99.99
2019-03-19T05:05:46.954Z,99.99
2019-03-19T05:06:46.909Z,99.99
2019-03-19T05:07:46.857Z,99.99
2019-03-19T05:08:46.807Z,99.99
2019-03-19T05:09:46.832Z,99.99
2019-03-19T05:10:46.705Z,99.99
2019-03-19T05:12:11.809Z,99.99
2019-03-19T05:12:46.668Z,99.99
2019-03-19T05:14:12.382Z,99.99
2019-03-19T05:14:46.585Z,99.99
2019-03-19T05:15:46.535Z,99.99
2019-03-19T05:17:10.458Z,99.99
2019-03-19T05:17:46.470Z,99.99
2019-03-19T05:19:01.459Z,99.99
2019-03-19T05:19:46.422Z,99.99
2019-03-19T05:20:47.456Z,99.99
2019-03-19T05:21:46.361Z,99.99
2019-03-19T05:22:54.958Z,99.99
2019-03-19T05:23:46.289Z,99.99
2019-03-19T05:25:46.365Z,99.99
2019-03-19T05:26:46.280Z,99.99
2019-03-19T05:27:46.191Z,99.99
2019-03-19T05:28:48.235Z,99.99
2019-03-19T05:29:46.106Z,99.99
2019-03-19T05:30:48.128Z,99.99
2019-03-19T05:31:46.039Z,99.99
2019-03-19T05:32:54.027Z,99.99
2019-03-19T05:33:46.015Z,99.99
2019-03-19T05:34:46.037Z,99.99
2019-03-19T05:35:45.916Z,99.99
2019-03-19T05:36:47.973Z,99.99
2019-03-19T05:37:45.887Z,99.99
2019-03-19T05:38:46.861Z,99.99
2019-03-19T05:39:45.813Z,99.99
2019-03-19T05:40:54.474Z,99.99
2019-03-19T05:41:45.780Z,99.99
2019-03-19T05:42:52.406Z,99.99
2019-03-19T05:43:45.684Z,99.99
2019-03-19T05:45:06.678Z,99.99
2019-03-19T05:45:45.612Z,99.99
2019-03-19T05:46:54.510Z,99.99
2019-03-19T05:47:45.582Z,99.99
2019-03-19T05:49:06.621Z,99.99
2019-03-19T05:49:45.493Z,99.99
2019-03-19T05:51:07.576Z,99.99
2019-03-19T05:51:45.460Z,99.99
2019-03-19T05:53:45.363Z,99.99
2019-03-19T05:54:45.341Z,99.99
2019-03-19T05:55:45.342Z,99.99
2019-03-19T05:56:45.277Z,99.99
2019-03-19T05:57:49.815Z,99.99
2019-03-19T05:58:45.215Z,99.99
2019-03-19T05:59:45.246Z,99.99
2019-03-19T06:00:45.139Z,99.99
2019-03-19T06:01:45.157Z,99.99
2019-03-19T06:02:45.095Z,99.99
2019-03-19T06:03:45.071Z,99.99
2019-03-19T06:04:45.065Z,99.99
2019-03-19T06:05:45.083Z,99.99
2019-03-19T06:06:44.981Z,99.99
2019-03-19T06:07:45.019Z,99.99
2019-03-19T06:08:44.900Z,99.99
2019-03-19T06:09:44.909Z,99.99
2019-03-19T06:10:44.835Z,99.99
2019-03-19T06:11:44.905Z,99.99
2019-03-19T06:12:44.803Z,99.99
2019-03-19T06:13:44.867Z,99.99
2019-03-19T06:14:44.741Z,99.99
2019-03-19T06:15:44.763Z,99.99
2019-03-19T06:16:44.644Z,99.99
2019-03-19T06:17:44.647Z,99.99
2019-03-19T06:18:44.583Z,99.99
2019-03-19T06:19:52.447Z,99.99
2019-03-19T06:20:44.549Z,99.99
2019-03-19T06:21:44.586Z,99.99
2019-03-19T06:22:44.467Z,99.99
2019-03-19T06:23:44.486Z,99.99
2019-03-19T06:24:44.401Z,99.99
2019-03-19T06:25:44.447Z,99.99
2019-03-19T06:26:44.341Z,99.99
2019-03-19T06:27:44.404Z,99.99
2019-03-19T06:28:44.352Z,99.99
2019-03-19T06:29:44.318Z,99.99
2019-03-19T06:30:44.215Z,99.99
2019-03-19T06:31:44.231Z,99.99
2019-03-19T06:32:44.204Z,99.99
2019-03-19T06:33:44.230Z,99.99
2019-03-19T06:34:44.077Z,99.99
2019-03-19T06:35:44.144Z,99.99
2019-03-19T06:36:44.018Z,99.99
2019-03-19T06:37:44.053Z,99.99
2019-03-19T06:38:43.963Z,99.99
2019-03-19T06:39:43.966Z,99.99
2019-03-19T06:40:43.942Z,99.99
2019-03-19T06:41:43.990Z,99.99
2019-03-19T06:42:43.976Z,99.99
2019-03-19T06:43:43.885Z,99.99
2019-03-19T06:44:43.783Z,99.99
2019-03-19T06:45:43.803Z,99.99
2019-03-19T06:46:43.724Z,99.99
2019-03-19T06:47:43.713Z,99.99
2019-03-19T06:48:43.657Z,99.99
2019-03-19T06:49:43.628Z,99.99
2019-03-19T06:50:45.433Z,99.99
2019-03-19T06:51:44.675Z,99.99
2019-03-19T06:52:43.541Z,99.99
2019-03-19T06:53:44.568Z,99.99
2019-03-19T06:54:43.523Z,99.99
2019-03-19T06:55:45.486Z,99.99
2019-03-19T06:56:43.423Z,99.99
2019-03-19T06:57:50.967Z,99.99
2019-03-19T06:58:43.344Z,99.99
2019-03-19T06:59:44.389Z,99.99
2019-03-19T07:00:43.291Z,99.99
2019-03-19T07:01:50.973Z,99.99
2019-03-19T07:02:43.254Z,99.99
2019-03-19T07:03:43.329Z,99.99
2019-03-19T07:04:43.160Z,99.99
2019-03-19T07:05:43.202Z,99.99
2019-03-19T07:06:43.097Z,99.99
2019-03-19T07:07:43.118Z,99.99
2019-03-19T07:08:43.109Z,99.99
2019-03-19T07:09:43.122Z,99.99
2019-03-19T07:10:42.992Z,99.99
2019-03-19T07:11:43.047Z,99.99
2019-03-19T07:12:42.987Z,99.99
2019-03-19T07:13:42.876Z,99.99
2019-03-19T07:14:42.859Z,99.99
2019-03-19T07:15:42.820Z,99.99
2019-03-19T07:16:42.893Z,99.99
2019-03-19T07:17:42.764Z,99.99
2019-03-19T07:18:42.726Z,99.99
2019-03-19T07:19:42.779Z,99.99
2019-03-19T07:20:42.667Z,99.99
2019-03-19T07:21:43.713Z,99.99
2019-03-19T07:22:42.626Z,99.99
2019-03-19T07:23:42.722Z,99.99
2019-03-19T07:24:42.568Z,99.99
2019-03-19T07:25:42.612Z,99.99
2019-03-19T07:26:42.474Z,99.99
2019-03-19T07:27:49.508Z,99.99
2019-03-19T07:28:42.410Z,99.99
2019-03-19T07:29:44.488Z,99.99
2019-03-19T07:30:42.338Z,99.99
2019-03-19T07:31:42.354Z,99.99
2019-03-19T07:32:42.279Z,99.99
2019-03-19T07:33:43.287Z,99.99
2019-03-19T07:34:42.239Z,99.99
2019-03-19T07:35:42.280Z,99.99
2019-03-19T07:36:42.169Z,99.99
2019-03-19T07:37:42.137Z,99.99
2019-03-19T07:38:42.097Z,99.99
2019-03-19T07:39:44.134Z,99.99
2019-03-19T07:40:42.046Z,99.99
2019-03-19T07:41:42.111Z,99.99
2019-03-19T07:42:41.971Z,99.99
2019-03-19T07:43:51.020Z,99.99
2019-03-19T07:44:41.938Z,99.99
2019-03-19T07:45:41.907Z,99.99
2019-03-19T07:46:41.860Z,99.99
2019-03-19T07:47:42.860Z,99.99
2019-03-19T07:48:41.805Z,99.99
2019-03-19T07:50:03.851Z,99.99
2019-03-19T07:50:41.776Z,99.99
2019-03-19T07:51:57.557Z,99.99
2019-03-19T07:52:41.682Z,99.99
2019-03-19T07:53:42.800Z,99.99
2019-03-19T07:54:41.637Z,99.99
2019-03-19T07:55:41.649Z,99.99
2019-03-19T07:56:41.644Z,99.99
2019-03-19T07:57:41.714Z,99.99
2019-03-19T07:58:45.582Z,99.99
2019-03-19T07:59:41.639Z,99.99
2019-03-19T08:00:41.414Z,99.99
2019-03-19T08:01:41.565Z,99.99
2019-03-19T08:02:41.360Z,99.99
2019-03-19T08:03:41.340Z,99.99
2019-03-19T08:04:41.303Z,99.99
2019-03-19T08:05:41.384Z,99.99
2019-03-19T08:06:41.227Z,99.99
2019-03-19T08:07:43.380Z,99.99
2019-03-19T08:08:41.182Z,99.99
2019-03-19T08:09:41.297Z,99.99
2019-03-19T08:10:41.118Z,99.99
2019-03-19T08:11:42.145Z,99.99
2019-03-19T08:12:41.105Z,99.99
2019-03-19T08:13:42.140Z,99.99
2019-03-19T08:14:41.013Z,99.99
2019-03-19T08:15:40.979Z,99.99
2019-03-19T08:16:40.924Z,99.99
2019-03-19T08:17:42.816Z,99.99
2019-03-19T08:18:40.866Z,99.99
2019-03-19T08:19:42.915Z,99.99
2019-03-19T08:20:40.863Z,99.99
2019-03-19T08:21:40.779Z,99.99
2019-03-19T08:22:40.778Z,99.99
2019-03-19T08:23:40.737Z,99.99
2019-03-19T08:25:40.642Z,99.99
2019-03-19T08:26:40.717Z,99.99
2019-03-19T08:27:40.621Z,99.99
2019-03-19T08:28:40.599Z,99.99
2019-03-19T08:29:40.523Z,99.99
2019-03-19T08:30:40.602Z,99.99
2019-03-19T08:31:40.447Z,99.99
2019-03-19T08:32:40.410Z,99.99
2019-03-19T08:33:40.404Z,99.99
2019-03-19T08:34:40.363Z,99.99
2019-03-19T08:35:40.331Z,99.99
2019-03-19T08:36:40.291Z,99.99
2019-03-19T08:37:40.260Z,99.99
2019-03-19T08:38:40.219Z,99.99
2019-03-19T08:39:40.276Z,99.99
2019-03-19T08:40:40.259Z,99.99
2019-03-19T08:41:41.185Z,99.99
2019-03-19T08:42:40.120Z,99.99
2019-03-19T08:43:40.188Z,99.99
2019-03-19T08:44:40.037Z,99.99
2019-03-19T08:45:40.083Z,99.99
2019-03-19T08:46:39.993Z,99.99
2019-03-19T08:47:39.985Z,99.99
2019-03-19T08:48:40.010Z,99.99
2019-03-19T08:49:40.008Z,99.99
2019-03-19T08:50:40.012Z,99.99
2019-03-19T08:51:39.841Z,99.99
2019-03-19T08:52:39.982Z,99.99
2019-03-19T08:53:39.781Z,99.99
2019-03-19T08:54:39.897Z,99.99
2019-03-19T08:55:39.836Z,99.99
2019-03-19T08:56:40.816Z,99.99
2019-03-19T08:57:39.691Z,99.99
2019-03-19T08:58:48.511Z,99.99
2019-03-19T08:59:39.628Z,99.99
2019-03-19T09:00:39.634Z,99.99
2019-03-19T09:01:39.626Z,99.99
2019-03-19T09:02:39.519Z,99.99
2019-03-19T09:03:39.575Z,99.99
2019-03-19T09:04:39.532Z,99.99
2019-03-19T09:05:39.437Z,99.99
2019-03-19T09:06:39.384Z,99.99
2019-03-19T09:07:39.352Z,99.99
2019-03-19T09:08:39.328Z,99.99
2019-03-19T09:09:39.307Z,99.99
2019-03-19T09:10:39.333Z,99.99
2019-03-19T09:11:39.217Z,99.99
2019-03-19T09:12:39.245Z,99.99
2019-03-19T09:13:39.165Z,99.99
2019-03-19T09:14:39.284Z,99.99
2019-03-19T09:15:39.113Z,99.99
2019-03-19T09:16:39.186Z,99.99
2019-03-19T09:17:39.143Z,99.99
2019-03-19T09:18:39.088Z,99.99
2019-03-19T09:19:39.002Z,99.99
2019-03-19T09:20:38.995Z,99.99
2019-03-19T09:21:38.948Z,99.99
2019-03-19T09:22:38.914Z,99.99
2019-03-19T09:23:38.930Z,99.99
2019-03-19T09:24:38.960Z,99.99
2019-03-19T09:25:38.939Z,99.99
2019-03-19T09:26:38.788Z,99.99
2019-03-19T09:27:38.851Z,99.99
2019-03-19T09:28:38.744Z,99.99
2019-03-19T09:29:38.755Z,99.99
2019-03-19T09:30:38.736Z,99.99
2019-03-19T09:31:38.637Z,99.99
2019-03-19T09:32:38.677Z,99.99
2019-03-19T09:33:38.660Z,99.99
2019-03-19T09:34:38.588Z,99.99
2019-03-19T09:35:38.527Z,99.99
2019-03-19T09:36:38.597Z,99.99
2019-03-19T09:37:44.562Z,99.99
2019-03-19T09:38:38.521Z,99.99
2019-03-19T09:39:38.396Z,99.99
2019-03-19T09:40:39.548Z,99.99
2019-03-19T09:41:38.345Z,99.99
2019-03-19T09:42:38.295Z,99.99
2019-03-19T09:43:38.342Z,99.99
2019-03-19T09:44:38.234Z,99.99
2019-03-19T09:45:38.235Z,99.99
2019-03-19T09:46:38.185Z,99.99
2019-03-19T09:47:38.607Z,99.99
2019-03-19T09:48:38.119Z,99.99
2019-03-19T09:49:38.080Z,99.99
2019-03-19T09:50:38.061Z,99.99
2019-03-19T09:51:38.040Z,99.99
2019-03-19T09:52:38.020Z,99.99
2019-03-19T09:53:37.980Z,99.99
2019-03-19T09:54:38.088Z,99.99
2019-03-19T09:55:37.906Z,99.99
2019-03-19T09:56:37.869Z,99.99
2019-03-19T09:57:37.877Z,99.99
2019-03-19T09:58:37.808Z,99.99
2019-03-19T09:59:37.799Z,99.99
2019-03-19T10:00:37.758Z,99.99
2019-03-19T10:01:37.787Z,99.99
2019-03-19T10:02:37.709Z,99.99
2019-03-19T10:03:37.677Z,99.99
2019-03-19T10:04:37.633Z,99.99
2019-03-19T10:05:37.660Z,99.99
2019-03-19T10:06:37.572Z,99.99
2019-03-19T10:07:37.543Z,99.99
2019-03-19T10:08:37.514Z,99.22
2019-03-19T10:09:37.611Z,99.55
2019-03-19T10:10:37.499Z,96.74
2019-03-19T10:11:37.446Z,97.50
2019-03-19T10:12:37.509Z,97.41
2019-03-19T10:13:37.374Z,95.70
2019-03-19T10:14:37.335Z,96.84
2019-03-19T10:15:37.379Z,93.79
2019-03-19T10:16:37.284Z,97.60
2019-03-19T10:17:37.279Z,95.89
2019-03-19T10:18:37.285Z,94.98
2019-03-19T10:19:37.192Z,93.74
2019-03-19T10:20:37.181Z,92.41
2019-03-19T10:21:37.136Z,91.17
2019-03-19T10:22:37.100Z,87.08
2019-03-19T10:23:37.079Z,85.08
2019-03-19T10:24:37.066Z,83.70
2019-03-19T10:25:38.101Z,85.60
2019-03-19T10:26:36.985Z,83.98
2019-03-19T10:27:36.955Z,84.84
2019-03-19T10:28:36.937Z,84.27
2019-03-19T10:29:38.518Z,82.65
2019-03-19T10:30:36.915Z,82.23
2019-03-19T10:31:36.841Z,82.04
2019-03-19T10:32:36.821Z,81.47
2019-03-19T10:33:36.875Z,81.95
2019-03-19T10:34:36.747Z,84.33
2019-03-19T10:35:36.749Z,83.94
2019-03-19T10:36:36.682Z,81.23
2019-03-19T10:37:36.670Z,78.14
2019-03-19T10:38:36.636Z,77.09
2019-03-19T10:39:36.599Z,77.28
2019-03-19T10:40:36.561Z,77.05
2019-03-19T10:41:36.546Z,76.86
2019-03-19T10:42:36.599Z,76.39
2019-03-19T10:43:36.499Z,76.01
2019-03-19T10:44:36.451Z,76.29
2019-03-19T10:45:36.412Z,80.29
2019-03-19T10:46:36.422Z,81.47
2019-03-19T10:47:36.348Z,81.09
2019-03-19T10:48:36.337Z,78.46
2019-03-19T10:49:36.304Z,76.46
2019-03-19T10:50:36.301Z,74.56
2019-03-19T10:51:36.273Z,71.61
2019-03-19T10:52:37.285Z,73.41
2019-03-19T10:53:36.210Z,74.65
2019-03-19T10:54:37.183Z,72.65
2019-03-19T10:55:36.127Z,72.08
2019-03-19T10:56:38.670Z,72.46
2019-03-19T10:57:36.064Z,74.75
2019-03-19T10:58:36.084Z,73.76
2019-03-19T10:59:36.008Z,73.95
2019-03-19T11:00:36.009Z,75.38
2019-03-19T11:01:36.048Z,77.37
2019-03-19T11:02:42.463Z,77.28
2019-03-19T11:03:36.021Z,77.53
2019-03-19T11:04:36.031Z,78.86
2019-03-19T11:05:35.915Z,80.66
2019-03-19T11:06:35.834Z,81.33
2019-03-19T11:07:35.913Z,81.71
2019-03-19T11:08:35.936Z,82.00
2019-03-19T11:09:35.809Z,81.43
2019-03-19T11:10:35.861Z,82.28
2019-03-19T11:11:35.938Z,82.62
2019-03-19T11:12:35.624Z,83.10
2019-03-19T11:13:35.676Z,82.43
2019-03-19T11:14:35.711Z,83.19
2019-03-19T11:15:35.665Z,84.14
2019-03-19T11:16:35.761Z,84.52
2019-03-19T11:17:35.645Z,84.38
2019-03-19T11:18:35.570Z,84.19
2019-03-19T11:19:35.513Z,83.95
2019-03-19T11:20:35.484Z,83.29
2019-03-19T11:21:35.454Z,83.48
2019-03-19T11:22:35.331Z,83.14
2019-03-19T11:23:35.336Z,82.05
2019-03-19T11:24:35.271Z,81.71
2019-03-19T11:25:36.277Z,81.05
2019-03-19T11:26:35.215Z,78.48
2019-03-19T11:27:35.281Z,77.81
2019-03-19T11:28:35.153Z,79.72
2019-03-19T11:29:35.122Z,77.34
2019-03-19T11:30:35.132Z,73.63
2019-03-19T11:31:35.125Z,71.44
2019-03-19T11:32:35.100Z,70.77
2019-03-19T11:33:35.021Z,71.28
2019-03-19T11:34:34.979Z,71.09
2019-03-19T11:35:35.013Z,69.82
2019-03-19T11:36:34.980Z,70.39
2019-03-19T11:37:34.899Z,70.33
2019-03-19T11:38:34.927Z,70.52
2019-03-19T11:39:34.865Z,73.28
2019-03-19T11:40:34.848Z,72.90
2019-03-19T11:41:34.795Z,73.32
2019-03-19T11:42:34.864Z,71.98
2019-03-19T11:43:34.732Z,70.31
2019-03-19T11:44:34.714Z,70.69
2019-03-19T11:45:34.689Z,68.69
2019-03-19T11:46:34.625Z,68.02
2019-03-19T11:47:34.598Z,66.50
2019-03-19T11:48:34.573Z,67.74
2019-03-19T11:49:34.608Z,67.26
2019-03-19T11:50:34.513Z,66.11
2019-03-19T11:51:34.560Z,68.12
2019-03-19T11:52:34.462Z,66.31
2019-03-19T11:53:34.521Z,67.07
2019-03-19T11:54:34.405Z,66.40
2019-03-19T11:55:34.491Z,67.45
2019-03-19T11:56:34.347Z,68.59
2019-03-19T11:57:34.428Z,66.88
2019-03-19T11:58:34.297Z,64.62
2019-03-19T11:59:34.310Z,63.96
2019-03-19T12:00:34.301Z,64.97
2019-03-19T12:01:34.194Z,63.83
2019-03-19T12:02:34.212Z,64.12
2019-03-19T12:03:34.177Z,64.50
2019-03-19T12:04:34.113Z,64.43
2019-03-19T12:05:34.073Z,63.17
2019-03-19T12:06:34.053Z,62.21
2019-03-19T12:07:34.027Z,62.97
2019-03-19T12:08:33.982Z,63.26
2019-03-19T12:09:33.993Z,62.68
2019-03-19T12:10:33.970Z,66.40
2019-03-19T12:11:33.956Z,65.45
2019-03-19T12:12:33.939Z,66.02
2019-03-19T12:13:34.975Z,64.78
2019-03-19T12:14:33.829Z,64.40
2019-03-19T12:15:33.902Z,62.97
2019-03-19T12:16:33.759Z,63.54
2019-03-19T12:17:33.764Z,64.97
2019-03-19T12:18:33.707Z,64.87
2019-03-19T12:19:33.719Z,64.40
2019-03-19T12:20:41.517Z,66.59
2019-03-19T12:21:33.620Z,67.29
2019-03-19T12:22:49.504Z,66.88
2019-03-19T12:23:33.573Z,66.40
2019-03-19T12:24:55.596Z,67.39
2019-03-19T12:25:33.515Z,66.44
2019-03-19T12:26:41.547Z,66.82
2019-03-19T12:27:33.457Z,65.10
2019-03-19T12:28:39.537Z,66.82
2019-03-19T12:29:33.392Z,66.53
2019-03-19T12:30:33.464Z,65.83
2019-03-19T12:31:33.327Z,67.07
2019-03-19T12:32:33.315Z,69.10
2019-03-19T12:33:40.919Z,67.77
2019-03-19T12:34:33.243Z,67.48
2019-03-19T12:35:33.249Z,68.44
2019-03-19T12:36:33.233Z,67.77
2019-03-19T12:37:33.158Z,69.10
2019-03-19T12:53:46.419Z,71.77
2019-03-19T12:54:46.404Z,68.82
2019-03-19T12:55:46.378Z,67.93
2019-03-19T12:56:46.414Z,67.74
2019-03-19T12:57:46.291Z,67.35
2019-03-19T12:58:46.357Z,69.74
2019-03-19T12:59:46.255Z,70.59
2019-03-19T13:00:46.315Z,69.35
2019-03-19T13:01:46.228Z,68.30
2019-03-19T13:02:46.154Z,67.26
2019-03-19T13:03:46.156Z,67.45
2019-03-19T13:04:46.096Z,67.64
2019-03-19T13:05:46.173Z,67.83
2019-03-19T13:06:46.078Z,68.69
2019-03-19T13:07:46.079Z,68.98
2019-03-19T13:08:46.069Z,70.31
2019-03-19T13:09:46.044Z,70.12
2019-03-19T13:10:45.928Z,70.50
2019-03-19T13:11:46.012Z,70.94